createdAt,value
2023-10-11T00:00:30.924Z,13.74
2023-10-11T00:03:34.642Z,13.50
2023-10-11T00:06:02.335Z,13.82
2023-10-11T00:08:31.037Z,13.99
2023-10-11T00:11:04.124Z,13.72
2023-10-11T00:13:35.075Z,13.76
2023-10-11T00:16:09.722Z,13.65
2023-10-11T00:18:42.570Z,13.52
2023-10-11T00:21:16.850Z,13.42
2023-10-11T00:23:52.074Z,13.68
2023-10-11T00:26:19.875Z,13.56
2023-10-11T00:28:54.880Z,13.62
2023-10-11T00:31:21.954Z,13.46
2023-10-11T00:33:49.586Z,13.62
2023-10-11T00:36:17.816Z,13.22
2023-10-11T00:38:48.690Z,13.32
2023-10-11T00:41:20.735Z,13.53
2023-10-11T00:43:57.010Z,13.39
2023-10-11T00:46:39.496Z,13.10
2023-10-11T00:49:13.912Z,13.08
2023-10-11T00:51:43.799Z,13.21
2023-10-11T00:54:14.282Z,13.26
2023-10-11T00:56:45.093Z,13.25
2023-10-11T00:59:16.128Z,13.24
2023-10-11T01:01:44.078Z,12.87
2023-10-11T01:04:13.685Z,13.17
2023-10-11T01:06:41.168Z,12.94
2023-10-11T01:09:18.488Z,13.06
2023-10-11T01:11:47.418Z,12.96
2023-10-11T01:14:14.689Z,12.84
2023-10-11T01:16:42.981Z,12.95
2023-10-11T01:19:13.461Z,12.88
2023-10-11T01:21:43.055Z,12.98
2023-10-11T01:24:10.323Z,12.88
2023-10-11T01:26:37.885Z,12.50
2023-10-11T01:29:07.066Z,12.53
2023-10-11T01:31:34.772Z,12.52
2023-10-11T01:34:01.838Z,12.58
2023-10-11T01:36:28.878Z,12.81
2023-10-11T01:39:02.208Z,12.71
2023-10-11T01:41:29.236Z,12.59
2023-10-11T01:43:57.703Z,12.61
2023-10-11T01:46:27.840Z,12.47
2023-10-11T01:48:56.524Z,12.83
2023-10-11T01:51:27.994Z,12.80
2023-10-11T01:54:02.538Z,12.70
2023-10-11T01:56:29.335Z,12.59
2023-10-11T01:59:02.238Z,12.49
2023-10-11T02:01:40.573Z,12.40
2023-10-11T02:04:12.926Z,12.47
2023-10-11T02:06:41.357Z,12.33
2023-10-11T02:09:10.473Z,12.62
2023-10-11T02:11:42.823Z,12.47
2023-10-11T02:14:10.760Z,12.53
2023-10-11T02:16:37.588Z,12.67
2023-10-11T02:19:06.391Z,12.50
2023-10-11T02:21:34.267Z,12.27
2023-10-11T02:24:01.179Z,12.30
2023-10-11T02:26:36.087Z,12.31
2023-10-11T02:29:16.707Z,12.59
2023-10-11T02:31:43.961Z,12.46
2023-10-11T02:34:16.461Z,12.58
2023-10-11T02:36:44.752Z,12.60
2023-10-11T02:39:21.503Z,12.30
2023-10-11T02:41:51.546Z,12.39
2023-10-11T02:44:24.148Z,12.09
2023-10-11T02:46:52.176Z,12.52
2023-10-11T02:49:22.290Z,12.57
2023-10-11T02:51:54.090Z,12.31
2023-10-11T02:54:21.737Z,12.46
2023-10-11T02:56:48.965Z,12.31
2023-10-11T02:59:26.731Z,12.32
2023-10-11T03:02:00.795Z,12.26
2023-10-11T03:04:35.829Z,12.04
2023-10-11T03:07:02.982Z,12.12
2023-10-11T03:09:34.379Z,12.23
2023-10-11T03:12:21.565Z,12.28
2023-10-11T03:14:55.614Z,12.26
2023-10-11T03:17:23.432Z,11.93
2023-10-11T03:19:50.522Z,11.85
2023-10-11T03:22:29.485Z,11.74
2023-10-11T03:25:00.984Z,11.78
2023-10-11T03:27:28.893Z,11.72
2023-10-11T03:29:57.334Z,11.73
2023-10-11T03:32:26.813Z,11.68
2023-10-11T03:34:54.667Z,11.61
2023-10-11T03:37:21.513Z,11.63
2023-10-11T03:39:57.703Z,11.86
2023-10-11T03:42:43.760Z,11.85
2023-10-11T03:45:11.725Z,11.86
2023-10-11T03:47:39.568Z,11.82
2023-10-11T03:50:08.135Z,11.83
2023-10-11T03:52:35.103Z,11.71
2023-10-11T03:55:12.574Z,11.78
2023-10-11T03:57:44.032Z,11.79
2023-10-11T04:00:25.024Z,11.88
2023-10-11T04:02:59.829Z,11.87
2023-10-11T04:05:37.111Z,11.86
2023-10-11T04:08:09.354Z,11.76
2023-10-11T04:10:50.785Z,11.45
2023-10-11T04:13:19.859Z,11.53
2023-10-11T04:15:53.213Z,11.79
2023-10-11T04:18:38.512Z,11.73
2023-10-11T04:21:11.562Z,11.50
2023-10-11T04:23:40.479Z,11.73
2023-10-11T04:26:24.306Z,11.75
2023-10-11T04:28:53.345Z,11.72
2023-10-11T04:31:31.022Z,11.77
2023-10-11T04:34:00.335Z,11.67
2023-10-11T04:36:29.641Z,11.49
2023-10-11T04:39:05.233Z,11.68
2023-10-11T04:41:39.566Z,11.62
2023-10-11T04:44:14.397Z,11.29
2023-10-11T04:46:45.818Z,11.45
2023-10-11T04:49:24.468Z,11.52
2023-10-11T04:51:52.331Z,11.48
2023-10-11T04:54:19.839Z,11.55
2023-10-11T04:56:46.779Z,11.53
2023-10-11T04:59:30.486Z,11.55
2023-10-11T05:02:00.358Z,11.44
2023-10-11T05:04:32.320Z,11.53
2023-10-11T05:07:04.620Z,11.47
2023-10-11T05:09:38.897Z,11.71
2023-10-11T05:12:07.313Z,11.76
2023-10-11T05:14:37.778Z,11.52
2023-10-11T05:17:14.425Z,11.38
2023-10-11T05:19:46.600Z,11.59
2023-10-11T05:22:29.474Z,11.18
2023-10-11T05:25:00.857Z,11.50
2023-10-11T05:27:36.602Z,11.46
2023-10-11T05:30:10.525Z,11.46
2023-10-11T05:32:49.942Z,11.23
2023-10-11T05:35:24.692Z,11.37
2023-10-11T05:38:13.949Z,11.06
2023-10-11T05:40:59.183Z,11.22
2023-10-11T05:43:44.648Z,11.19
2023-10-11T05:46:30.176Z,11.48
2023-10-11T05:49:15.536Z,11.49
2023-10-11T05:51:43.346Z,11.46
2023-10-11T05:54:12.253Z,11.41
2023-10-11T05:56:46.796Z,11.71
2023-10-11T05:59:15.433Z,11.85
2023-10-11T06:01:45.738Z,11.94
2023-10-11T06:04:15.296Z,11.65
2023-10-11T06:06:48.643Z,11.77
2023-10-11T06:09:19.291Z,12.16
2023-10-11T06:11:50.894Z,12.24
2023-10-11T06:14:19.060Z,12.35
2023-10-11T06:16:51.150Z,12.66
2023-10-11T06:19:18.891Z,12.66
2023-10-11T06:21:57.891Z,12.88
2023-10-11T06:24:36.165Z,13.11
2023-10-11T06:27:11.995Z,13.22
2023-10-11T06:29:40.354Z,13.29
2023-10-11T06:32:20.584Z,13.50
2023-10-11T06:34:48.746Z,14.08
2023-10-11T06:37:19.373Z,14.66
2023-10-11T06:39:47.854Z,15.58
2023-10-11T06:42:21.973Z,16.29
2023-10-11T06:45:00.070Z,17.25
2023-10-11T06:47:37.648Z,17.82
2023-10-11T06:50:15.284Z,18.26
2023-10-11T06:52:46.555Z,19.14
2023-10-11T06:55:15.221Z,19.32
2023-10-11T06:57:46.962Z,19.64
2023-10-11T07:00:24.757Z,20.51
2023-10-11T07:03:23.213Z,21.03
2023-10-11T07:05:52.254Z,21.91
2023-10-11T07:08:21.553Z,22.60
2023-10-11T07:11:11.145Z,22.46
2023-10-11T07:13:51.141Z,21.33
2023-10-11T07:16:23.656Z,20.86
2023-10-11T07:18:55.924Z,21.18
2023-10-11T07:21:27.434Z,21.33
2023-10-11T07:23:55.064Z,21.23
2023-10-11T07:26:24.958Z,20.66
2023-10-11T07:28:53.550Z,21.09
2023-10-11T07:31:22.582Z,20.83
2023-10-11T07:33:51.614Z,19.40
2023-10-11T07:36:20.252Z,19.41
2023-10-11T07:38:56.065Z,19.89
2023-10-11T07:41:30.056Z,20.96
2023-10-11T07:44:02.477Z,20.65
2023-10-11T07:46:32.074Z,21.40
2023-10-11T07:49:07.837Z,21.23
2023-10-11T07:51:40.992Z,22.64
2023-10-11T07:54:09.369Z,22.89
2023-10-11T07:56:37.180Z,23.58
2023-10-11T07:59:10.857Z,21.70
2023-10-11T08:01:43.939Z,22.08
2023-10-11T08:04:13.224Z,22.44
2023-10-11T08:06:42.439Z,22.11
2023-10-11T08:09:11.178Z,21.17
2023-10-11T08:11:38.408Z,21.74
2023-10-11T08:14:16.130Z,25.00
2023-10-11T08:16:43.429Z,23.31
2023-10-11T08:19:12.459Z,22.63
2023-10-11T08:21:39.238Z,24.13
2023-10-11T08:24:07.932Z,23.57
2023-10-11T08:26:45.493Z,21.98
2023-10-11T08:29:29.514Z,20.61
2023-10-11T08:32:00.350Z,22.79
2023-10-11T08:34:28.684Z,24.04
2023-10-11T08:36:56.340Z,25.25
2023-10-11T08:39:45.356Z,27.84
2023-10-11T08:42:15.982Z,29.02
2023-10-11T08:44:47.152Z,29.06
2023-10-11T08:47:15.089Z,28.49
2023-10-11T08:49:51.827Z,25.72
2023-10-11T08:52:25.975Z,24.29
2023-10-11T08:54:52.871Z,23.91
2023-10-11T08:57:27.429Z,26.26
2023-10-11T09:00:00.375Z,26.97
2023-10-11T09:02:28.237Z,26.49
2023-10-11T09:05:07.537Z,28.11
2023-10-11T09:07:40.708Z,28.49
2023-10-11T09:10:29.622Z,28.78
2023-10-11T09:12:58.504Z,29.40
2023-10-11T09:15:34.469Z,28.79
2023-10-11T09:18:19.231Z,25.95
2023-10-11T09:20:56.891Z,24.68
2023-10-11T09:23:40.901Z,25.08
2023-10-11T09:26:09.556Z,24.89
2023-10-11T09:28:41.866Z,24.53
2023-10-11T09:31:12.253Z,24.91
2023-10-11T09:33:42.074Z,27.68
2023-10-11T09:36:10.175Z,26.80
2023-10-11T09:38:42.797Z,27.66
2023-10-11T09:41:10.254Z,28.36
2023-10-11T09:43:45.593Z,26.79
2023-10-11T09:46:14.286Z,27.73
2023-10-11T09:48:44.347Z,28.42
2023-10-11T09:51:18.759Z,28.79
2023-10-11T09:53:51.332Z,28.78
2023-10-11T09:56:33.460Z,29.04
2023-10-11T09:59:24.586Z,29.05
2023-10-11T10:02:21.084Z,28.42
2023-10-11T10:04:53.776Z,24.67
2023-10-11T10:07:46.435Z,25.79
2023-10-11T10:10:17.682Z,26.18
2023-10-11T10:12:56.635Z,25.29
2023-10-11T10:15:24.610Z,25.85
2023-10-11T10:18:06.822Z,26.80
2023-10-11T10:20:43.914Z,24.05
2023-10-11T10:23:16.839Z,23.59
2023-10-11T10:25:49.444Z,24.52
2023-10-11T10:28:37.726Z,25.45
2023-10-11T10:31:10.943Z,26.04
2023-10-11T10:33:39.095Z,26.68
2023-10-11T10:36:30.251Z,25.50
2023-10-11T10:39:09.150Z,25.63
2023-10-11T10:41:41.806Z,24.37
2023-10-11T10:44:14.928Z,24.14
2023-10-11T10:46:55.386Z,25.04
2023-10-11T10:49:44.184Z,25.72
2023-10-11T10:52:18.331Z,26.73
2023-10-11T10:55:02.595Z,27.07
2023-10-11T10:57:34.106Z,27.47
2023-10-11T11:00:06.513Z,27.36
2023-10-11T11:02:34.760Z,27.66
2023-10-11T11:05:02.052Z,28.13
2023-10-11T11:07:29.000Z,27.75
2023-10-11T11:09:59.082Z,27.13
2023-10-11T11:12:30.218Z,27.43
2023-10-11T11:15:01.856Z,25.51
2023-10-11T11:17:48.369Z,23.81
2023-10-11T11:20:17.476Z,24.32
2023-10-11T11:22:46.929Z,25.25
2023-10-11T11:25:37.514Z,25.92
2023-10-11T11:28:19.780Z,25.62
2023-10-11T11:30:52.805Z,24.58
2023-10-11T11:33:29.717Z,25.23
2023-10-11T11:35:56.754Z,24.69
2023-10-11T11:38:23.591Z,24.49
2023-10-11T11:41:03.260Z,24.79
2023-10-11T11:43:34.926Z,25.41
2023-10-11T11:46:04.900Z,25.05
2023-10-11T11:48:41.512Z,24.32
2023-10-11T11:51:17.735Z,24.80
2023-10-11T11:53:45.305Z,24.17
2023-10-11T11:56:15.675Z,25.01
2023-10-11T11:58:51.172Z,25.80
2023-10-11T12:01:18.844Z,25.26
2023-10-11T12:03:55.552Z,25.37
2023-10-11T12:06:23.618Z,25.88
2023-10-11T12:09:01.445Z,25.77
2023-10-11T12:11:30.490Z,25.85
2023-10-11T12:14:05.195Z,25.65
2023-10-11T12:16:32.037Z,24.59
2023-10-11T12:19:01.853Z,24.89
2023-10-11T12:21:32.051Z,25.62
2023-10-11T12:23:58.792Z,26.17
2023-10-11T12:26:27.892Z,26.48
2023-10-11T12:28:55.542Z,26.16
2023-10-11T12:31:22.302Z,26.74
2023-10-11T12:33:49.254Z,26.78
2023-10-11T12:36:21.169Z,26.98
2023-10-11T12:38:50.201Z,26.25
2023-10-11T12:41:17.257Z,25.91
2023-10-11T12:43:46.831Z,26.69
2023-10-11T12:46:17.005Z,26.98
2023-10-11T12:48:46.342Z,27.40
2023-10-11T12:51:13.048Z,27.43
2023-10-11T12:53:39.688Z,27.31
2023-10-11T12:56:10.664Z,27.07
2023-10-11T12:58:42.937Z,24.86
2023-10-11T13:01:15.718Z,24.64
2023-10-11T13:03:44.064Z,25.24
2023-10-11T13:06:11.589Z,25.99
2023-10-11T13:08:39.138Z,25.83
2023-10-11T13:11:13.574Z,25.59
2023-10-11T13:13:45.089Z,25.42
2023-10-11T13:16:23.689Z,24.98
2023-10-11T13:18:50.417Z,25.23
2023-10-11T13:21:18.062Z,25.79
2023-10-11T13:23:45.335Z,24.74
2023-10-11T13:26:19.646Z,24.33
2023-10-11T13:28:54.280Z,23.99
2023-10-11T13:31:21.118Z,24.73
2023-10-11T13:33:47.811Z,25.03
2023-10-11T13:36:15.323Z,25.50
2023-10-11T13:38:46.452Z,25.61
2023-10-11T13:41:13.720Z,25.60
2023-10-11T13:43:41.389Z,26.15
2023-10-11T13:46:08.868Z,26.26
2023-10-11T13:48:41.148Z,26.07
2023-10-11T13:51:10.163Z,26.10
2023-10-11T13:53:45.839Z,26.19
2023-10-11T13:56:25.994Z,26.46
2023-10-11T13:58:54.176Z,25.56
2023-10-11T14:01:40.239Z,24.81
2023-10-11T14:04:15.165Z,25.19
2023-10-11T14:06:47.462Z,25.76
2023-10-11T14:09:22.466Z,25.73
2023-10-11T14:11:52.278Z,25.79
2023-10-11T14:14:21.579Z,26.11
2023-10-11T14:16:49.751Z,26.14
2023-10-11T14:19:18.135Z,25.70
2023-10-11T14:21:48.375Z,26.03
2023-10-11T14:24:20.286Z,25.76
2023-10-11T14:26:48.588Z,25.66
2023-10-11T14:29:17.149Z,25.99
2023-10-11T14:31:44.522Z,26.15
2023-10-11T14:34:12.222Z,26.04
2023-10-11T14:36:42.212Z,26.09
2023-10-11T14:39:18.877Z,25.83
2023-10-11T14:41:47.543Z,25.82
2023-10-11T14:44:14.906Z,25.63
2023-10-11T14:46:42.505Z,25.44
2023-10-11T14:49:11.831Z,25.26
2023-10-11T14:51:40.805Z,25.27
2023-10-11T14:54:07.589Z,25.12
2023-10-11T14:56:35.326Z,25.32
2023-10-11T14:59:02.701Z,25.17
2023-10-11T15:01:34.759Z,25.07
2023-10-11T15:04:10.810Z,24.62
2023-10-11T15:06:46.361Z,24.36
2023-10-11T15:09:13.789Z,24.89
2023-10-11T15:11:40.406Z,24.46
2023-10-11T15:14:10.449Z,24.23
2023-10-11T15:16:37.477Z,24.16
2023-10-11T15:19:05.263Z,24.07
2023-10-11T15:21:32.392Z,24.28
2023-10-11T15:23:59.113Z,24.09
2023-10-11T15:26:26.942Z,23.86
2023-10-11T15:28:55.246Z,23.89
2023-10-11T15:31:22.109Z,23.93
2023-10-11T15:33:49.066Z,24.13
2023-10-11T15:36:16.196Z,24.38
2023-10-11T15:38:45.733Z,24.51
2023-10-11T15:41:17.276Z,24.87
2023-10-11T15:43:44.564Z,24.95
2023-10-11T15:46:13.239Z,24.71
2023-10-11T15:48:41.088Z,24.66
2023-10-11T15:51:16.825Z,24.90
2023-10-11T15:53:46.433Z,25.09
2023-10-11T15:56:15.432Z,24.93
2023-10-11T15:58:43.203Z,24.69
2023-10-11T16:01:10.004Z,24.73
2023-10-11T16:03:41.086Z,24.55
2023-10-11T16:06:08.750Z,24.49
2023-10-11T16:08:36.223Z,24.63
2023-10-11T16:11:05.828Z,24.58
2023-10-11T16:13:35.828Z,24.47
2023-10-11T16:16:04.157Z,24.49
2023-10-11T16:18:30.826Z,24.22
2023-10-11T16:20:58.087Z,24.15
2023-10-11T16:23:33.660Z,23.84
2023-10-11T16:26:02.201Z,23.83
2023-10-11T16:28:30.584Z,23.59
2023-10-11T16:30:59.661Z,23.36
2023-10-11T16:33:32.596Z,23.27
2023-10-11T16:36:02.538Z,23.12
2023-10-11T16:38:33.758Z,22.84
2023-10-11T16:41:03.933Z,22.74
2023-10-11T16:43:30.578Z,22.65
2023-10-11T16:45:58.937Z,22.57
2023-10-11T16:48:26.164Z,22.27
2023-10-11T16:50:53.021Z,22.22
2023-10-11T16:53:19.685Z,22.02
2023-10-11T16:55:46.370Z,21.92
2023-10-11T16:58:13.015Z,21.77
2023-10-11T17:00:43.307Z,21.59
2023-10-11T17:03:12.808Z,21.58
2023-10-11T17:05:39.727Z,21.51
2023-10-11T17:08:07.229Z,21.38
2023-10-11T17:10:34.963Z,21.29
2023-10-11T17:13:02.004Z,21.26
2023-10-11T17:15:28.699Z,21.03
2023-10-11T17:17:55.562Z,20.80
2023-10-11T17:20:26.122Z,20.68
2023-10-11T17:22:53.583Z,20.75
2023-10-11T17:25:22.040Z,20.63
2023-10-11T17:27:49.686Z,20.34
2023-10-11T17:30:20.903Z,20.36
2023-10-11T17:32:48.525Z,20.16
2023-10-11T17:35:17.000Z,20.23
2023-10-11T17:37:48.136Z,20.04
2023-10-11T17:40:19.278Z,19.97
2023-10-11T17:42:49.350Z,19.75
2023-10-11T17:45:18.451Z,19.90
2023-10-11T17:47:45.389Z,19.51
2023-10-11T17:50:14.507Z,19.37
2023-10-11T17:52:42.433Z,19.47
2023-10-11T17:55:10.408Z,19.20
2023-10-11T17:57:38.859Z,19.05
2023-10-11T18:00:10.430Z,19.18
2023-10-11T18:02:38.243Z,19.23
2023-10-11T18:05:13.307Z,18.83
2023-10-11T18:07:40.758Z,18.84
2023-10-11T18:10:08.194Z,18.95
2023-10-11T18:12:35.350Z,18.55
2023-10-11T18:15:06.726Z,18.81
2023-10-11T18:17:40.818Z,18.42
2023-10-11T18:20:09.468Z,18.53
2023-10-11T18:22:40.652Z,18.38
2023-10-11T18:25:10.941Z,18.59
2023-10-11T18:27:38.905Z,18.41
2023-10-11T18:30:06.402Z,18.24
2023-10-11T18:32:37.061Z,18.31
2023-10-11T18:35:05.367Z,18.16
2023-10-11T18:37:31.932Z,18.17
2023-10-11T18:39:59.835Z,18.20
2023-10-11T18:42:27.529Z,17.98
2023-10-11T18:44:54.799Z,18.02
2023-10-11T18:47:23.086Z,17.77
2023-10-11T18:49:50.190Z,17.88
2023-10-11T18:52:17.434Z,17.59
2023-10-11T18:54:44.150Z,17.65
2023-10-11T18:57:10.850Z,17.51
2023-10-11T18:59:37.529Z,17.38
2023-10-11T19:02:04.152Z,17.60
2023-10-11T19:04:30.773Z,17.37
2023-10-11T19:06:57.443Z,17.22
2023-10-11T19:09:24.502Z,17.35
2023-10-11T19:11:51.167Z,17.12
2023-10-11T19:14:18.038Z,17.20
2023-10-11T19:16:45.016Z,17.18
2023-10-11T19:19:13.207Z,17.34
2023-10-11T19:21:39.933Z,17.52
2023-10-11T19:24:10.172Z,17.28
2023-10-11T19:26:39.803Z,17.34
2023-10-11T19:29:06.556Z,17.23
2023-10-11T19:31:33.614Z,17.11
2023-10-11T19:34:00.302Z,17.22
2023-10-11T19:36:27.068Z,17.31
2023-10-11T19:38:53.769Z,17.34
2023-10-11T19:41:20.444Z,17.01
2023-10-11T19:43:47.196Z,17.00
2023-10-11T19:46:14.520Z,16.88
2023-10-11T19:48:44.038Z,16.91
2023-10-11T19:51:11.214Z,16.97
2023-10-11T19:53:38.344Z,16.62
2023-10-11T19:56:18.645Z,16.64
2023-10-11T19:58:46.872Z,16.43
2023-10-11T20:01:19.110Z,16.55
2023-10-11T20:03:54.363Z,16.33
2023-10-11T20:06:23.682Z,16.56
2023-10-11T20:08:52.536Z,16.40
2023-10-11T20:11:20.626Z,16.48
2023-10-11T20:13:48.092Z,16.45
2023-10-11T20:16:17.580Z,16.08
2023-10-11T20:18:45.827Z,16.32
2023-10-11T20:21:19.508Z,16.03
2023-10-11T20:23:46.974Z,16.25
2023-10-11T20:26:18.798Z,16.31
2023-10-11T20:28:52.943Z,16.18
2023-10-11T20:31:19.691Z,16.40
2023-10-11T20:33:46.491Z,16.26
2023-10-11T20:36:14.202Z,16.37
2023-10-11T20:38:44.392Z,16.28
2023-10-11T20:41:12.693Z,16.36
2023-10-11T20:43:40.424Z,16.39
2023-10-11T20:46:11.841Z,16.10
2023-10-11T20:48:39.212Z,16.42
2023-10-11T20:51:08.155Z,16.44
2023-10-11T20:53:36.530Z,16.52
2023-10-11T20:56:04.976Z,16.38
2023-10-11T20:58:31.809Z,16.25
2023-10-11T21:01:01.260Z,16.65
2023-10-11T21:03:28.975Z,16.34
2023-10-11T21:05:55.617Z,16.65
2023-10-11T21:08:26.512Z,16.46
2023-10-11T21:10:54.009Z,16.42
2023-10-11T21:13:22.761Z,16.34
2023-10-11T21:15:50.326Z,16.36
2023-10-11T21:18:17.462Z,16.13
2023-10-11T21:20:46.074Z,16.18
2023-10-11T21:23:19.407Z,16.23
2023-10-11T21:25:56.380Z,16.17
2023-10-11T21:28:25.153Z,16.12
2023-10-11T21:30:51.967Z,15.91
2023-10-11T21:33:19.445Z,15.82
2023-10-11T21:35:46.340Z,15.46
2023-10-11T21:38:13.493Z,15.80
2023-10-11T21:40:42.944Z,15.60
2023-10-11T21:43:13.436Z,15.38
2023-10-11T21:45:40.258Z,15.26
2023-10-11T21:48:10.811Z,15.37
2023-10-11T21:50:38.392Z,15.50
2023-10-11T21:53:05.605Z,15.30
2023-10-11T21:55:33.344Z,15.19
2023-10-11T21:58:00.032Z,15.42
2023-10-11T22:00:47.167Z,15.34
2023-10-11T22:03:15.300Z,15.60
2023-10-11T22:05:41.942Z,15.60
2023-10-11T22:08:08.597Z,15.41
2023-10-11T22:10:39.693Z,15.46
2023-10-11T22:13:07.648Z,15.46
2023-10-11T22:15:34.395Z,15.19
2023-10-11T22:18:02.256Z,14.99
2023-10-11T22:20:29.513Z,15.13
2023-10-11T22:22:57.672Z,14.85
2023-10-11T22:25:25.449Z,14.93
2023-10-11T22:27:56.402Z,15.05
2023-10-11T22:30:45.379Z,15.04
2023-10-11T22:33:12.312Z,14.92
2023-10-11T22:35:39.970Z,14.80
2023-10-11T22:38:08.219Z,14.90
2023-10-11T22:40:38.271Z,14.69
2023-10-11T22:43:17.147Z,14.90
2023-10-11T22:45:51.499Z,15.11
2023-10-11T22:48:18.305Z,15.02
2023-10-11T22:50:44.999Z,14.51
2023-10-11T22:53:12.430Z,14.80
2023-10-11T22:55:42.232Z,14.56
2023-10-11T22:58:09.221Z,14.60
2023-10-11T23:00:36.592Z,14.76
2023-10-11T23:03:04.139Z,14.62
2023-10-11T23:05:33.821Z,14.72
2023-10-11T23:08:00.668Z,14.44
2023-10-11T23:10:28.196Z,14.61
2023-10-11T23:13:32.250Z,14.63
2023-10-11T23:16:29.266Z,14.43
2023-10-11T23:18:59.080Z,14.54
2023-10-11T23:21:27.915Z,14.34
2023-10-11T23:23:55.458Z,14.24
2023-10-11T23:26:26.114Z,14.46
2023-10-11T23:29:04.254Z,14.41
2023-10-11T23:31:31.701Z,14.44
2023-10-11T23:33:58.629Z,14.37
2023-10-11T23:36:36.254Z,14.64
2023-10-11T23:39:09.891Z,14.80
2023-10-11T23:41:47.500Z,14.71
2023-10-11T23:44:23.510Z,14.64
2023-10-11T23:46:59.252Z,14.45
2023-10-11T23:52:06.672Z,14.55
2023-10-11T23:54:35.681Z,14.28
2023-10-11T23:57:09.068Z,14.44
2023-10-11T23:59:38.332Z,14.36
